createdAt,value
2022-08-05T00:01:50.945Z,6.60
2022-08-05T00:04:20.386Z,7.63
2022-08-05T00:06:51.671Z,7.90
2022-08-05T00:09:20.334Z,7.93
2022-08-05T00:11:59.655Z,8.10
2022-08-05T00:14:31.432Z,7.70
2022-08-05T00:17:02.048Z,8.07
2022-08-05T00:19:33.191Z,7.70
2022-08-05T00:22:04.503Z,7.20
2022-08-05T00:24:32.295Z,6.53
2022-08-05T00:27:04.613Z,6.10
2022-08-05T00:29:38.406Z,7.53
2022-08-05T00:32:12.984Z,7.70
2022-08-05T00:35:05.124Z,8.70
2022-08-05T00:37:51.343Z,9.30
2022-08-05T00:40:29.029Z,8.77
2022-08-05T00:43:02.921Z,6.87
2022-08-05T00:45:42.842Z,7.87
2022-08-05T00:48:27.717Z,8.20
2022-08-05T00:50:59.262Z,7.53
2022-08-05T00:54:00.032Z,9.30
2022-08-05T00:56:23.013Z,7.73
2022-08-05T00:58:51.724Z,9.07
2022-08-05T01:01:42.877Z,9.10
2022-08-05T01:04:14.351Z,9.53
2022-08-05T01:06:46.749Z,8.73
2022-08-05T01:09:17.363Z,9.80
2022-08-05T01:11:55.891Z,9.30
2022-08-05T01:14:44.402Z,10.10
2022-08-05T01:17:43.997Z,9.70
2022-08-05T01:21:25.782Z,10.20
2022-08-05T01:24:50.123Z,9.60
2022-08-05T01:28:13.328Z,9.20
2022-08-05T01:31:07.592Z,9.87
2022-08-05T01:34:39.433Z,9.10
2022-08-05T01:37:44.402Z,9.27
2022-08-05T01:40:17.835Z,10.83
2022-08-05T01:42:51.839Z,10.57
2022-08-05T01:45:22.562Z,10.47
2022-08-05T01:47:55.599Z,10.50
2022-08-05T01:50:41.751Z,10.50
2022-08-05T01:53:55.017Z,9.73
2022-08-05T01:58:11.073Z,9.73
2022-08-05T01:59:12.141Z,10.30
2022-08-05T02:01:44.202Z,9.87
2022-08-05T02:04:18.662Z,10.90
2022-08-05T02:06:46.466Z,10.30
2022-08-05T02:09:16.481Z,11.43
2022-08-05T02:12:34.890Z,9.80
2022-08-05T02:15:22.325Z,9.53
2022-08-05T02:18:44.813Z,9.20
2022-08-05T02:21:22.656Z,8.97
2022-08-05T02:24:03.811Z,9.80
2022-08-05T02:26:58.912Z,9.57
2022-08-05T02:29:58.829Z,9.80
2022-08-05T02:32:29.132Z,7.70
2022-08-05T02:35:14.063Z,8.97
2022-08-05T02:37:46.506Z,8.67
2022-08-05T02:40:21.644Z,9.13
2022-08-05T02:42:53.920Z,8.33
2022-08-05T02:45:25.662Z,8.77
2022-08-05T02:48:09.731Z,9.40
2022-08-05T02:50:43.970Z,10.00
2022-08-05T02:53:19.181Z,10.50
2022-08-05T02:55:59.519Z,9.67
2022-08-05T02:58:32.568Z,10.60
2022-08-05T03:01:04.613Z,12.87
2022-08-05T03:04:03.083Z,11.80
2022-08-05T03:06:56.095Z,12.37
2022-08-05T03:09:17.951Z,13.77
2022-08-05T03:11:57.969Z,13.00
2022-08-05T03:14:26.827Z,15.00
2022-08-05T03:16:54.655Z,12.90
2022-08-05T03:19:34.044Z,13.10
2022-08-05T03:22:05.153Z,13.27
2022-08-05T03:24:51.029Z,14.37
2022-08-05T03:27:22.479Z,12.70
2022-08-05T03:30:08.566Z,13.77
2022-08-05T03:32:39.112Z,13.00
2022-08-05T03:35:08.928Z,13.60
2022-08-05T03:37:46.262Z,14.00
2022-08-05T03:40:31.081Z,13.97
2022-08-05T03:43:01.402Z,14.00
2022-08-05T03:45:57.417Z,15.80
2022-08-05T03:48:29.535Z,18.03
2022-08-05T03:52:48.778Z,20.70
2022-08-05T03:55:52.915Z,21.10
2022-08-05T03:57:16.574Z,20.70
2022-08-05T04:00:15.527Z,21.80
2022-08-05T04:02:58.400Z,24.27
2022-08-05T04:05:36.308Z,25.47
2022-08-05T04:08:30.389Z,23.50
2022-08-05T04:11:03.099Z,23.33
2022-08-05T04:13:50.840Z,26.73
2022-08-05T04:16:25.186Z,27.30
2022-08-05T04:18:59.997Z,27.67
2022-08-05T04:22:08.864Z,27.53
2022-08-05T04:24:19.515Z,26.37
2022-08-05T04:26:51.074Z,26.80
2022-08-05T04:29:19.904Z,24.10
2022-08-05T04:31:48.407Z,27.73
2022-08-05T04:34:32.762Z,25.57
2022-08-05T04:37:03.502Z,27.70
2022-08-05T04:39:35.271Z,25.70
2022-08-05T04:42:03.807Z,28.20
2022-08-05T04:44:31.311Z,24.43
2022-08-05T04:47:08.939Z,24.40
2022-08-05T04:50:02.635Z,25.20
2022-08-05T04:52:29.488Z,20.90
2022-08-05T04:55:09.576Z,20.80
2022-08-05T04:57:47.734Z,21.40
2022-08-05T05:00:23.343Z,21.10
2022-08-05T05:02:52.063Z,18.33
2022-08-05T05:05:28.116Z,20.30
2022-08-05T05:08:14.342Z,20.77
2022-08-05T05:10:56.682Z,21.17
2022-08-05T05:13:24.304Z,21.07
2022-08-05T05:16:01.863Z,20.20
2022-08-05T05:18:34.338Z,21.27
2022-08-05T05:21:04.319Z,21.57
2022-08-05T05:23:58.828Z,24.30
2022-08-05T05:26:28.066Z,23.40
2022-08-05T05:28:56.385Z,23.13
2022-08-05T05:31:24.668Z,22.73
2022-08-05T05:33:59.276Z,22.90
2022-08-05T05:36:32.079Z,22.47
2022-08-05T05:38:59.685Z,22.77
2022-08-05T05:41:40.121Z,21.80
2022-08-05T05:44:34.481Z,22.20
2022-08-05T05:46:58.092Z,21.73
2022-08-05T05:49:26.480Z,21.50
2022-08-05T05:51:55.669Z,21.20
2022-08-05T05:54:49.847Z,22.60
2022-08-05T05:57:13.896Z,23.67
2022-08-05T05:59:48.946Z,23.30
2022-08-05T06:02:16.958Z,23.27
2022-08-05T06:04:47.486Z,19.43
2022-08-05T06:07:17.022Z,20.83
2022-08-05T06:10:04.538Z,19.67
2022-08-05T06:12:42.243Z,20.90
2022-08-05T06:15:23.590Z,20.60
2022-08-05T06:17:54.193Z,17.97
2022-08-05T06:20:22.401Z,17.03
2022-08-05T06:22:50.461Z,20.47
2022-08-05T06:25:59.503Z,18.90
2022-08-05T06:28:11.728Z,19.50
2022-08-05T06:30:48.701Z,19.03
2022-08-05T06:33:19.339Z,20.03
2022-08-05T06:36:08.240Z,19.47
2022-08-05T06:38:37.728Z,19.67
2022-08-05T06:41:07.993Z,19.43
2022-08-05T06:43:59.421Z,16.60
2022-08-05T06:46:29.658Z,17.60
2022-08-05T06:49:01.271Z,14.80
2022-08-05T06:51:31.308Z,15.10
2022-08-05T06:54:05.125Z,14.33
2022-08-05T06:56:35.612Z,15.80
2022-08-05T06:59:09.587Z,15.97
2022-08-05T07:01:40.548Z,14.80
2022-08-05T07:04:09.323Z,14.40
2022-08-05T07:06:37.834Z,15.43
2022-08-05T07:09:05.987Z,15.70
2022-08-05T07:11:39.953Z,15.17
2022-08-05T07:14:29.977Z,14.43
2022-08-05T07:17:57.389Z,14.00
2022-08-05T07:22:42.055Z,13.03
2022-08-05T07:25:23.909Z,13.10
2022-08-05T07:28:04.257Z,12.57
2022-08-05T07:30:38.365Z,14.20
2022-08-05T07:33:16.427Z,12.93
2022-08-05T07:36:02.054Z,12.40
2022-08-05T07:38:42.759Z,14.00
2022-08-05T07:42:13.763Z,12.97
2022-08-05T07:44:14.297Z,13.60
2022-08-05T07:46:48.381Z,14.67
2022-08-05T07:49:18.322Z,14.13
2022-08-05T07:51:53.479Z,13.53
2022-08-05T07:54:31.718Z,12.57
2022-08-05T07:57:22.580Z,13.93
2022-08-05T07:59:53.820Z,13.70
2022-08-05T08:02:30.832Z,12.47
2022-08-05T08:04:59.714Z,12.47
2022-08-05T08:07:28.934Z,11.00
2022-08-05T08:10:07.697Z,11.30
2022-08-05T08:12:49.773Z,12.40
2022-08-05T08:15:17.761Z,11.07
2022-08-05T08:18:13.981Z,10.70
2022-08-05T08:21:03.349Z,9.00
2022-08-05T08:24:01.327Z,10.00
2022-08-05T08:26:17.773Z,10.00
2022-08-05T08:29:02.143Z,9.50
2022-08-05T08:31:46.034Z,9.90
2022-08-05T08:34:13.663Z,8.23
2022-08-05T08:36:47.626Z,8.60
2022-08-05T08:39:21.870Z,7.93
2022-08-05T08:41:59.843Z,9.40
2022-08-05T08:45:23.520Z,8.70
2022-08-05T08:48:05.721Z,9.20
2022-08-05T08:50:51.979Z,8.47
2022-08-05T08:53:15.651Z,9.10
2022-08-05T08:58:37.077Z,10.07
2022-08-05T09:01:16.968Z,10.07
2022-08-05T09:03:55.207Z,10.47
2022-08-05T09:06:30.625Z,9.27
2022-08-05T09:09:02.557Z,8.90
2022-08-05T09:11:50.831Z,9.80
2022-08-05T09:14:56.315Z,8.70
2022-08-05T09:17:41.169Z,8.53
2022-08-05T09:20:04.880Z,7.90
2022-08-05T09:23:37.304Z,8.30
2022-08-05T09:26:20.679Z,8.30
2022-08-05T09:28:59.385Z,7.30
2022-08-05T09:32:40.284Z,8.20
2022-08-05T09:34:15.112Z,7.50
2022-08-05T09:36:55.022Z,7.17
2022-08-05T09:39:41.148Z,8.23
2022-08-05T09:42:24.092Z,7.07
2022-08-05T09:45:17.222Z,7.70
2022-08-05T09:47:55.002Z,7.50
2022-08-05T09:50:44.856Z,8.60
2022-08-05T09:53:22.792Z,7.20
2022-08-05T09:56:04.757Z,6.93
2022-08-05T09:58:42.069Z,6.20
2022-08-05T10:01:15.727Z,5.30
2022-08-05T10:04:13.793Z,5.20
2022-08-05T10:06:59.413Z,4.70
2022-08-05T10:09:29.509Z,5.40
2022-08-05T10:12:30.436Z,5.50
2022-08-05T10:15:28.015Z,6.00
2022-08-05T10:18:16.665Z,5.67
2022-08-05T10:20:59.787Z,5.67
2022-08-05T10:23:58.865Z,5.13
2022-08-05T10:26:32.386Z,4.57
2022-08-05T10:29:00.724Z,5.30
2022-08-05T10:32:53.996Z,4.93
2022-08-05T10:34:16.981Z,5.67
2022-08-05T10:36:46.489Z,4.37
2022-08-05T10:40:03.196Z,3.87
2022-08-05T10:42:34.181Z,3.80
2022-08-05T10:45:20.843Z,4.50
2022-08-05T10:48:29.127Z,3.03
2022-08-05T10:51:21.974Z,3.23
2022-08-05T10:54:05.960Z,3.73
2022-08-05T10:56:58.564Z,3.47
2022-08-05T11:00:02.517Z,4.07
2022-08-05T11:02:38.395Z,3.20
2022-08-05T11:05:10.840Z,3.60
2022-08-05T11:08:36.679Z,3.50
2022-08-05T11:11:52.043Z,3.60
2022-08-05T11:17:59.518Z,3.50
2022-08-05T11:20:47.646Z,3.90
2022-08-05T11:24:04.296Z,3.60
2022-08-05T11:26:43.153Z,4.40
2022-08-05T11:29:41.059Z,4.57
2022-08-05T11:32:30.514Z,4.03
2022-08-05T11:34:58.567Z,4.40
2022-08-05T11:38:29.634Z,4.57
2022-08-05T11:41:34.294Z,4.97
2022-08-05T11:44:12.560Z,4.83
2022-08-05T11:47:11.000Z,4.63
2022-08-05T11:49:51.255Z,4.80
2022-08-05T11:52:29.193Z,5.30
2022-08-05T11:55:07.443Z,5.50
2022-08-05T11:58:08.205Z,5.93
2022-08-05T12:00:32.008Z,5.87
2022-08-05T12:03:32.177Z,5.20
2022-08-05T12:06:20.175Z,4.30
2022-08-05T12:09:03.350Z,4.77
2022-08-05T12:11:49.602Z,4.40
2022-08-05T12:14:25.576Z,4.07
2022-08-05T12:17:01.061Z,3.90
2022-08-05T12:20:27.151Z,3.93
2022-08-05T12:22:41.509Z,4.80
2022-08-05T12:25:19.583Z,4.13
2022-08-05T12:27:54.933Z,3.67
2022-08-05T12:30:45.805Z,4.20
2022-08-05T12:33:27.388Z,4.07
2022-08-05T12:36:00.210Z,4.53
2022-08-05T12:38:41.372Z,3.77
2022-08-05T12:41:34.549Z,3.73
2022-08-05T12:44:33.606Z,4.77
2022-08-05T12:47:12.480Z,4.70
2022-08-05T12:50:04.494Z,3.57
2022-08-05T12:52:42.692Z,3.27
2022-08-05T12:55:43.565Z,3.50
2022-08-05T12:58:50.933Z,2.67
2022-08-05T13:02:03.554Z,2.47
2022-08-05T13:04:16.668Z,2.07
2022-08-05T13:06:51.883Z,2.00
2022-08-05T13:09:28.239Z,2.17
2022-08-05T13:12:28.508Z,1.97
2022-08-05T13:15:05.273Z,2.20
2022-08-05T13:17:55.895Z,2.43
2022-08-05T13:20:40.684Z,2.20
2022-08-05T13:23:10.528Z,1.93
2022-08-05T13:25:51.612Z,2.17
2022-08-05T13:28:44.181Z,2.10
2022-08-05T13:31:14.805Z,2.10
2022-08-05T13:34:24.889Z,1.70
2022-08-05T13:36:34.538Z,2.20
2022-08-05T13:40:14.449Z,1.37
2022-08-05T13:42:16.896Z,1.40
2022-08-05T13:44:54.453Z,1.60
2022-08-05T13:47:35.825Z,1.23
2022-08-05T13:50:22.732Z,1.27
2022-08-05T13:53:15.945Z,1.30
2022-08-05T13:55:49.263Z,1.10
2022-08-05T13:58:30.737Z,1.40
2022-08-05T14:00:59.718Z,0.93
2022-08-05T14:03:28.402Z,0.90
2022-08-05T14:06:24.741Z,1.20
2022-08-05T14:08:44.790Z,1.20
2022-08-05T14:11:20.469Z,1.00
2022-08-05T14:13:49.453Z,1.50
2022-08-05T14:16:23.651Z,2.10
2022-08-05T14:18:51.383Z,1.03
2022-08-05T14:22:08.712Z,1.10
2022-08-05T14:24:09.971Z,1.20
2022-08-05T14:27:02.037Z,1.30
2022-08-05T14:29:29.247Z,0.80
2022-08-05T14:32:12.948Z,1.30
2022-08-05T14:34:44.851Z,0.90
2022-08-05T14:37:14.095Z,1.27
2022-08-05T14:39:49.474Z,1.20
2022-08-05T14:42:19.345Z,1.10
2022-08-05T14:44:49.803Z,0.93
2022-08-05T14:47:58.463Z,0.97
2022-08-05T14:50:12.889Z,0.80
2022-08-05T14:52:53.471Z,0.80
2022-08-05T14:55:24.876Z,0.93
2022-08-05T14:57:54.210Z,1.17
2022-08-05T15:00:28.129Z,1.10
2022-08-05T15:02:58.152Z,0.87
2022-08-05T15:05:29.755Z,0.80
2022-08-05T15:08:11.621Z,0.80
2022-08-05T15:10:46.259Z,0.77
2022-08-05T15:13:14.603Z,0.73
2022-08-05T15:15:54.238Z,1.40
2022-08-05T15:18:25.271Z,0.90
2022-08-05T15:20:52.740Z,1.10
2022-08-05T15:23:20.581Z,0.73
2022-08-05T15:25:52.971Z,1.17
2022-08-05T15:28:27.707Z,1.40
2022-08-05T15:30:56.770Z,0.70
2022-08-05T15:34:04.881Z,0.83
2022-08-05T15:36:17.458Z,1.10
2022-08-05T15:40:40.908Z,0.90
2022-08-05T15:41:58.353Z,0.87
2022-08-05T15:44:30.957Z,0.77
2022-08-05T15:47:01.788Z,0.80
2022-08-05T15:49:47.895Z,0.90
2022-08-05T15:52:51.838Z,0.73
2022-08-05T15:55:16.933Z,0.80
2022-08-05T15:57:45.257Z,1.03
2022-08-05T16:00:16.654Z,1.00
2022-08-05T16:02:44.631Z,0.87
2022-08-05T16:05:12.314Z,1.13
2022-08-05T16:07:46.586Z,0.80
2022-08-05T16:10:16.879Z,1.00
2022-08-05T16:12:51.581Z,0.80
2022-08-05T16:15:21.745Z,1.07
2022-08-05T16:17:58.035Z,0.90
2022-08-05T16:20:27.875Z,1.13
2022-08-05T16:22:55.662Z,1.20
2022-08-05T16:25:32.159Z,1.07
2022-08-05T16:28:10.243Z,1.13
2022-08-05T16:30:38.211Z,1.00
2022-08-05T16:33:06.433Z,1.40
2022-08-05T16:35:42.321Z,1.20
2022-08-05T16:38:24.585Z,1.17
2022-08-05T16:41:00.883Z,1.03
2022-08-05T16:43:35.782Z,1.10
2022-08-05T16:46:12.628Z,0.93
2022-08-05T16:48:51.775Z,1.17
2022-08-05T16:51:20.643Z,1.40
2022-08-05T16:54:06.299Z,0.90
2022-08-05T16:56:41.464Z,1.03
2022-08-05T16:59:15.608Z,1.00
2022-08-05T17:01:53.802Z,1.30
2022-08-05T17:04:28.252Z,0.73
2022-08-05T17:07:03.365Z,1.23
2022-08-05T17:09:57.374Z,0.90
2022-08-05T17:12:51.079Z,1.10
2022-08-05T17:15:19.360Z,0.80
2022-08-05T17:17:55.132Z,0.97
2022-08-05T17:20:30.077Z,1.03
2022-08-05T17:22:58.949Z,1.10
2022-08-05T17:25:39.377Z,1.63
2022-08-05T17:28:09.276Z,0.90
2022-08-05T17:30:42.540Z,0.90
2022-08-05T17:33:18.723Z,1.10
2022-08-05T17:36:08.397Z,0.87
2022-08-05T17:38:35.724Z,0.90
2022-08-05T17:41:04.458Z,1.00
2022-08-05T17:43:50.423Z,1.00
2022-08-05T17:46:20.641Z,1.17
2022-08-05T17:48:48.544Z,1.40
2022-08-05T17:51:21.723Z,0.80
2022-08-05T17:53:54.534Z,1.33
2022-08-05T17:56:22.969Z,1.20
2022-08-05T17:58:56.069Z,1.00
2022-08-05T18:01:24.155Z,0.93
2022-08-05T18:04:04.518Z,0.90
2022-08-05T18:06:33.613Z,0.93
2022-08-05T18:09:03.808Z,0.80
2022-08-05T18:11:33.412Z,1.50
2022-08-05T18:14:13.148Z,1.10
2022-08-05T18:16:51.502Z,1.10
2022-08-05T18:19:22.791Z,1.00
2022-08-05T18:22:07.479Z,1.10
2022-08-05T18:24:39.508Z,1.10
2022-08-05T18:27:12.971Z,1.03
2022-08-05T18:29:54.184Z,0.90
2022-08-05T18:32:28.150Z,1.27
2022-08-05T18:34:57.457Z,1.37
2022-08-05T18:37:34.119Z,1.10
2022-08-05T18:41:50.681Z,1.20
2022-08-05T18:42:59.096Z,1.20
2022-08-05T18:45:41.344Z,1.40
2022-08-05T18:48:11.178Z,0.90
2022-08-05T18:52:02.800Z,1.00
2022-08-05T18:53:50.270Z,1.23
2022-08-05T18:56:21.807Z,1.37
2022-08-05T18:58:57.320Z,1.37
2022-08-05T19:01:33.205Z,1.20
2022-08-05T19:04:14.909Z,1.77
2022-08-05T19:06:53.772Z,1.40
2022-08-05T19:09:22.752Z,1.20
2022-08-05T19:12:00.327Z,1.20
2022-08-05T19:14:44.513Z,0.90
2022-08-05T19:17:20.116Z,1.20
2022-08-05T19:19:49.737Z,1.30
2022-08-05T19:22:17.855Z,0.83
2022-08-05T19:24:54.309Z,1.10
2022-08-05T19:27:30.439Z,1.37
2022-08-05T19:30:02.848Z,0.97
2022-08-05T19:32:31.068Z,1.27
2022-08-05T19:34:58.779Z,1.30
2022-08-05T19:37:47.265Z,1.60
2022-08-05T19:40:24.135Z,1.33
2022-08-05T19:43:04.542Z,1.13
2022-08-05T19:45:33.296Z,1.40
2022-08-05T19:48:06.022Z,1.23
2022-08-05T19:50:35.110Z,1.30
2022-08-05T19:53:09.584Z,1.80
2022-08-05T19:56:15.522Z,1.13
2022-08-05T19:58:29.248Z,0.90
2022-08-05T20:00:58.944Z,1.40
2022-08-05T20:03:27.434Z,1.57
2022-08-05T20:06:15.560Z,1.40
2022-08-05T20:08:56.215Z,1.00
2022-08-05T20:11:25.394Z,1.30
2022-08-05T20:13:59.148Z,1.13
2022-08-05T20:16:40.831Z,1.30
2022-08-05T20:19:10.958Z,1.20
2022-08-05T20:21:42.069Z,1.13
2022-08-05T20:24:12.177Z,1.40
2022-08-05T20:26:43.515Z,1.73
2022-08-05T20:29:26.430Z,1.10
2022-08-05T20:31:57.994Z,1.13
2022-08-05T20:34:25.942Z,1.37
2022-08-05T20:36:53.400Z,1.60
2022-08-05T20:39:21.030Z,2.03
2022-08-05T20:41:49.427Z,2.17
2022-08-05T20:44:29.891Z,2.33
2022-08-05T20:47:06.719Z,2.53
2022-08-05T20:49:39.361Z,2.80
2022-08-05T20:52:08.752Z,1.90
2022-08-05T20:54:43.364Z,2.50
2022-08-05T20:57:43.117Z,1.80
2022-08-05T21:00:41.591Z,1.80
2022-08-05T21:03:07.957Z,1.80
2022-08-05T21:05:53.859Z,1.70
2022-08-05T21:08:42.469Z,1.37
2022-08-05T21:11:51.637Z,2.17
2022-08-05T21:14:01.458Z,1.50
2022-08-05T21:16:30.790Z,1.63
2022-08-05T21:19:01.411Z,1.67
2022-08-05T21:21:39.501Z,1.97
2022-08-05T21:24:13.334Z,1.63
2022-08-05T21:26:53.365Z,2.00
2022-08-05T21:29:32.043Z,2.00
2022-08-05T21:32:02.885Z,1.70
2022-08-05T21:34:31.720Z,2.00
2022-08-05T21:37:01.141Z,2.13
2022-08-05T21:39:29.537Z,1.90
2022-08-05T21:42:01.847Z,1.73
2022-08-05T21:44:32.037Z,2.10
2022-08-05T21:47:01.250Z,2.20
2022-08-05T21:50:00.199Z,2.30
2022-08-05T21:52:27.609Z,2.10
2022-08-05T21:55:06.550Z,1.50
2022-08-05T21:57:36.424Z,1.40
2022-08-05T22:00:13.028Z,1.70
2022-08-05T22:02:42.646Z,1.70
2022-08-05T22:05:13.124Z,1.50
2022-08-05T22:07:59.018Z,1.43
2022-08-05T22:10:31.041Z,1.97
2022-08-05T22:13:08.652Z,3.07
2022-08-05T22:16:01.136Z,1.60
2022-08-05T22:18:32.333Z,1.77
2022-08-05T22:20:59.899Z,1.20
2022-08-05T22:24:02.320Z,1.50
2022-08-05T22:26:54.870Z,1.30
2022-08-05T22:29:26.528Z,1.80
2022-08-05T22:31:59.541Z,1.90
2022-08-05T22:34:32.982Z,1.93
2022-08-05T22:37:03.953Z,2.40
2022-08-05T22:39:34.465Z,2.40
2022-08-05T22:42:12.138Z,1.90
2022-08-05T22:44:48.439Z,1.90
2022-08-05T22:47:29.018Z,1.97
2022-08-05T22:50:21.821Z,2.17
2022-08-05T22:52:52.578Z,1.93
2022-08-05T22:55:23.965Z,2.00
2022-08-05T22:57:54.987Z,2.40
2022-08-05T23:00:24.103Z,2.00
2022-08-05T23:02:54.485Z,2.27
2022-08-05T23:05:23.710Z,2.10
2022-08-05T23:07:53.073Z,2.03
2022-08-05T23:10:23.521Z,3.23
2022-08-05T23:12:55.004Z,2.33
2022-08-05T23:15:34.948Z,2.30
2022-08-05T23:18:06.197Z,2.10
2022-08-05T23:20:43.822Z,2.27
2022-08-05T23:23:11.629Z,2.00
2022-08-05T23:25:51.448Z,1.83
2022-08-05T23:28:22.323Z,2.80
2022-08-05T23:30:53.134Z,2.53
2022-08-05T23:33:26.119Z,2.40
2022-08-05T23:36:13.653Z,2.53
2022-08-05T23:38:43.677Z,2.43
2022-08-05T23:41:12.234Z,1.90
2022-08-05T23:44:05.297Z,2.23
2022-08-05T23:46:28.957Z,2.30
2022-08-05T23:48:59.281Z,2.10
2022-08-05T23:51:55.154Z,2.40
2022-08-05T23:54:38.108Z,2.77
2022-08-05T23:57:08.628Z,2.30
